sensor_id;sensor_type;location;lat;lon;timestamp;pressure;altitude;pressure_sealevel;temperature;humidity
57568;BME280;43403;51.948;5.922;2023-02-20T00:01:18;102512.41;;;5.71;100.00
57568;BME280;43403;51.948;5.922;2023-02-20T00:03:45;102513.09;;;5.74;100.00
57568;BME280;43403;51.948;5.922;2023-02-20T00:06:11;102507.13;;;5.72;100.00
57568;BME280;43403;51.948;5.922;2023-02-20T00:08:38;102506.19;;;5.73;100.00
57568;BME280;43403;51.948;5.922;2023-02-20T00:11:05;102498.25;;;5.77;100.00
57568;BME280;43403;51.948;5.922;2023-02-20T00:13:31;102482.94;;;5.70;100.00
57568;BME280;43403;51.948;5.922;2023-02-20T00:15:58;102483.53;;;5.75;100.00
57568;BME280;43403;51.948;5.922;2023-02-20T00:18:24;102483.31;;;5.80;100.00
57568;BME280;43403;51.948;5.922;2023-02-20T00:20:50;102478.03;;;5.82;100.00
57568;BME280;43403;51.948;5.922;2023-02-20T00:23:17;102469.31;;;5.83;100.00
57568;BME280;43403;51.948;5.922;2023-02-20T00:25:43;102457.81;;;5.87;100.00
57568;BME280;43403;51.948;5.922;2023-02-20T00:28:10;102459.59;;;5.86;100.00
57568;BME280;43403;51.948;5.922;2023-02-20T00:30:36;102462.94;;;5.88;100.00
57568;BME280;43403;51.948;5.922;2023-02-20T00:33:02;102466.53;;;5.86;100.00
57568;BME280;43403;51.948;5.922;2023-02-20T00:35:29;102452.66;;;5.85;100.00
57568;BME280;43403;51.948;5.922;2023-02-20T00:37:55;102455.22;;;5.87;100.00
57568;BME280;43403;51.948;5.922;2023-02-20T00:40:23;102443.19;;;5.84;100.00
57568;BME280;43403;51.948;5.922;2023-02-20T00:42:50;102438.81;;;5.85;100.00
57568;BME280;43403;51.948;5.922;2023-02-20T00:45:16;102444.03;;;5.85;100.00
57568;BME280;43403;51.948;5.922;2023-02-20T00:47:43;102437.22;;;5.82;100.00
57568;BME280;43403;51.948;5.922;2023-02-20T00:50:11;102447.47;;;5.85;100.00
57568;BME280;43403;51.948;5.922;2023-02-20T00:52:38;102435.28;;;5.86;100.00
57568;BME280;43403;51.948;5.922;2023-02-20T00:55:07;102430.00;;;5.87;100.00
57568;BME280;43403;51.948;5.922;2023-02-20T00:57:33;102419.81;;;5.83;100.00
57568;BME280;43403;51.948;5.922;2023-02-20T00:59:59;102421.72;;;5.79;100.00
57568;BME280;43403;51.948;5.922;2023-02-20T01:02:26;102421.66;;;5.81;100.00
57568;BME280;43403;51.948;5.922;2023-02-20T01:04:52;102421.66;;;5.81;100.00
57568;BME280;43403;51.948;5.922;2023-02-20T01:07:19;102415.53;;;5.82;100.00
57568;BME280;43403;51.948;5.922;2023-02-20T01:09:45;102406.81;;;5.83;100.00
57568;BME280;43403;51.948;5.922;2023-02-20T01:12:11;102390.41;;;5.81;100.00
57568;BME280;43403;51.948;5.922;2023-02-20T01:14:37;102400.00;;;5.80;100.00
57568;BME280;43403;51.948;5.922;2023-02-20T01:17:04;102402.50;;;5.82;100.00
57568;BME280;43403;51.948;5.922;2023-02-20T01:19:30;102394.09;;;5.77;100.00
57568;BME280;43403;51.948;5.922;2023-02-20T01:21:57;102387.03;;;5.79;100.00
57568;BME280;43403;51.948;5.922;2023-02-20T01:24:23;102400.06;;;5.79;100.00
57568;BME280;43403;51.948;5.922;2023-02-20T01:26:49;102390.63;;;5.76;100.00
57568;BME280;43403;51.948;5.922;2023-02-20T01:29:16;102386.88;;;5.82;100.00
57568;BME280;43403;51.948;5.922;2023-02-20T01:31:46;102379.06;;;5.82;100.00
57568;BME280;43403;51.948;5.922;2023-02-20T01:34:13;102366.97;;;5.81;100.00
57568;BME280;43403;51.948;5.922;2023-02-20T01:36:44;102358.41;;;5.79;100.00
57568;BME280;43403;51.948;5.922;2023-02-20T01:39:10;102348.75;;;5.81;100.00
57568;BME280;43403;51.948;5.922;2023-02-20T01:41:36;102340.25;;;5.77;100.00
57568;BME280;43403;51.948;5.922;2023-02-20T01:44:03;102346.28;;;5.78;100.00
57568;BME280;43403;51.948;5.922;2023-02-20T01:51:25;102328.13;;;5.76;100.00
57568;BME280;43403;51.948;5.922;2023-02-20T01:53:52;102331.59;;;5.77;100.00
57568;BME280;43403;51.948;5.922;2023-02-20T01:56:19;102323.03;;;5.74;100.00
57568;BME280;43403;51.948;5.922;2023-02-20T01:58:46;102323.94;;;5.73;100.00
57568;BME280;43403;51.948;5.922;2023-02-20T02:01:14;102317.81;;;5.74;100.00
57568;BME280;43403;51.948;5.922;2023-02-20T02:03:42;102323.84;;;5.75;100.00
57568;BME280;43403;51.948;5.922;2023-02-20T02:06:11;102329.75;;;5.79;100.00
57568;BME280;43403;51.948;5.922;2023-02-20T02:08:39;102331.50;;;5.78;100.00
57568;BME280;43403;51.948;5.922;2023-02-20T02:11:08;102327.16;;;5.79;100.00
57568;BME280;43403;51.948;5.922;2023-02-20T02:13:36;102327.91;;;5.81;100.00
57568;BME280;43403;51.948;5.922;2023-02-20T02:18:38;102314.97;;;5.79;100.00
57568;BME280;43403;51.948;5.922;2023-02-20T02:34:24;102297.44;;;5.65;100.00
57568;BME280;43403;51.948;5.922;2023-02-20T02:37:01;102297.59;;;5.62;100.00
57568;BME280;43403;51.948;5.922;2023-02-20T02:44:31;102296.50;;;5.66;100.00
57568;BME280;43403;51.948;5.922;2023-02-20T02:47:05;102297.44;;;5.65;100.00
57568;BME280;43403;51.948;5.922;2023-02-20T02:49:43;102293.75;;;5.69;100.00
57568;BME280;43403;51.948;5.922;2023-02-20T02:52:11;102294.66;;;5.68;100.00
57568;BME280;43403;51.948;5.922;2023-02-20T02:54:58;102304.25;;;5.68;100.00
57568;BME280;43403;51.948;5.922;2023-02-20T02:57:25;102286.84;;;5.68;100.00
57568;BME280;43403;51.948;5.922;2023-02-20T03:00:15;102284.13;;;5.71;100.00
57568;BME280;43403;51.948;5.922;2023-02-20T03:02:45;102279.91;;;5.69;100.00
57568;BME280;43403;51.948;5.922;2023-02-20T03:05:14;102272.41;;;5.80;100.00
57568;BME280;43403;51.948;5.922;2023-02-20T03:07:43;102262.06;;;5.79;100.00
57568;BME280;43403;51.948;5.922;2023-02-20T03:10:11;102266.19;;;5.83;100.00
57568;BME280;43403;51.948;5.922;2023-02-20T03:12:48;102259.97;;;5.85;100.00
57568;BME280;43403;51.948;5.922;2023-02-20T03:15:19;102255.75;;;5.83;100.00
57568;BME280;43403;51.948;5.922;2023-02-20T03:20:44;102267.84;;;5.84;100.00
57568;BME280;43403;51.948;5.922;2023-02-20T03:23:13;102263.50;;;5.84;100.00
57568;BME280;43403;51.948;5.922;2023-02-20T03:25:45;102268.78;;;5.83;100.00
57568;BME280;43403;51.948;5.922;2023-02-20T03:28:19;102268.59;;;5.86;100.00
57568;BME280;43403;51.948;5.922;2023-02-20T03:33:15;102265.16;;;5.85;100.00
57568;BME280;43403;51.948;5.922;2023-02-20T03:36:03;102259.97;;;5.85;100.00
57568;BME280;43403;51.948;5.922;2023-02-20T03:38:51;102252.91;;;5.87;100.00
57568;BME280;43403;51.948;5.922;2023-02-20T03:41:36;102258.13;;;5.87;100.00
57568;BME280;43403;51.948;5.922;2023-02-20T03:44:23;102243.94;;;5.93;100.00
57568;BME280;43403;51.948;5.922;2023-02-20T03:46:51;102250.38;;;5.86;100.00
57568;BME280;43403;51.948;5.922;2023-02-20T03:49:19;102248.38;;;5.91;100.00
57568;BME280;43403;51.948;5.922;2023-02-20T03:52:06;102244.19;;;5.88;100.00
57568;BME280;43403;51.948;5.922;2023-02-20T03:54:33;102258.03;;;5.89;100.00
57568;BME280;43403;51.948;5.922;2023-02-20T03:57:06;102239.88;;;5.87;100.00
57568;BME280;43403;51.948;5.922;2023-02-20T03:59:36;102239.66;;;5.92;100.00
57568;BME280;43403;51.948;5.922;2023-02-20T04:02:06;102254.13;;;5.98;100.00
57568;BME280;43403;51.948;5.922;2023-02-20T04:04:35;102248.84;;;5.99;100.00
57568;BME280;43403;51.948;5.922;2023-02-20T04:07:05;102272.28;;;5.99;100.00
57568;BME280;43403;51.948;5.922;2023-02-20T04:09:32;102248.69;;;6.02;100.00
57568;BME280;43403;51.948;5.922;2023-02-20T04:12:03;102243.41;;;6.04;100.00
57568;BME280;43403;51.948;5.922;2023-02-20T04:14:31;102241.56;;;6.06;100.00
57568;BME280;43403;51.948;5.922;2023-02-20T04:17:00;102244.91;;;6.08;100.00
57568;BME280;43403;51.948;5.922;2023-02-20T04:19:27;102248.19;;;6.11;100.00
57568;BME280;43403;51.948;5.922;2023-02-20T04:21:54;102243.84;;;6.12;100.00
57568;BME280;43403;51.948;5.922;2023-02-20T04:24:23;102249.81;;;6.14;100.00
57568;BME280;43403;51.948;5.922;2023-02-20T04:26:51;102246.84;;;6.20;100.00
57568;BME280;43403;51.948;5.922;2023-02-20T04:29:18;102247.53;;;6.24;100.00
57568;BME280;43403;51.948;5.922;2023-02-20T04:31:45;102241.47;;;6.23;100.00
57568;BME280;43403;51.948;5.922;2023-02-20T04:34:11;102243.00;;;6.27;100.00
57568;BME280;43403;51.948;5.922;2023-02-20T04:36:38;102247.34;;;6.27;100.00
57568;BME280;43403;51.948;5.922;2023-02-20T04:39:04;102234.31;;;6.27;100.00
57568;BME280;43403;51.948;5.922;2023-02-20T04:41:30;102232.59;;;6.27;100.00
57568;BME280;43403;51.948;5.922;2023-02-20T04:43:57;102230.47;;;6.34;100.00
57568;BME280;43403;51.948;5.922;2023-02-20T04:46:42;102235.94;;;6.29;100.00
57568;BME280;43403;51.948;5.922;2023-02-20T04:49:08;102229.63;;;6.33;100.00
57568;BME280;43403;51.948;5.922;2023-02-20T04:51:35;102241.66;;;6.36;100.00
57568;BME280;43403;51.948;5.922;2023-02-20T04:54:01;102229.38;;;6.38;100.00
57568;BME280;43403;51.948;5.922;2023-02-20T04:56:27;102228.69;;;6.34;100.00
57568;BME280;43403;51.948;5.922;2023-02-20T04:58:54;102227.53;;;6.40;100.00
57568;BME280;43403;51.948;5.922;2023-02-20T05:01:20;102228.19;;;6.44;100.00
57568;BME280;43403;51.948;5.922;2023-02-20T05:03:46;102240.28;;;6.45;100.00
57568;BME280;43403;51.948;5.922;2023-02-20T05:06:13;102229.09;;;6.43;100.00
57568;BME280;43403;51.948;5.922;2023-02-20T05:08:39;102232.38;;;6.46;100.00
57568;BME280;43403;51.948;5.922;2023-02-20T05:11:05;102238.63;;;6.44;100.00
57568;BME280;43403;51.948;5.922;2023-02-20T05:13:32;102229.63;;;6.49;100.00
57568;BME280;43403;51.948;5.922;2023-02-20T05:15:58;102226.00;;;6.52;100.00
57568;BME280;43403;51.948;5.922;2023-02-20T05:18:25;102223.38;;;6.52;100.00
57568;BME280;43403;51.948;5.922;2023-02-20T05:20:52;102226.66;;;6.56;100.00
57568;BME280;43403;51.948;5.922;2023-02-20T05:23:37;102228.19;;;6.60;100.00
57568;BME280;43403;51.948;5.922;2023-02-20T05:26:07;102244.75;;;6.59;100.00
57568;BME280;43403;51.948;5.922;2023-02-20T05:28:33;102229.00;;;6.60;100.00
57568;BME280;43403;51.948;5.922;2023-02-20T05:31:00;102242.91;;;6.61;100.00
57568;BME280;43403;51.948;5.922;2023-02-20T05:33:26;102220.94;;;6.65;100.00
57568;BME280;43403;51.948;5.922;2023-02-20T05:35:52;102214.72;;;6.67;100.00
57568;BME280;43403;51.948;5.922;2023-02-20T05:38:19;102226.06;;;6.66;100.00
57568;BME280;43403;51.948;5.922;2023-02-20T05:40:45;102220.53;;;6.72;100.00
57568;BME280;43403;51.948;5.922;2023-02-20T05:43:11;102208.59;;;6.68;100.00
57568;BME280;43403;51.948;5.922;2023-02-20T05:45:37;102204.13;;;6.70;100.00
57568;BME280;43403;51.948;5.922;2023-02-20T05:48:04;102199.53;;;6.74;100.00
57568;BME280;43403;51.948;5.922;2023-02-20T05:50:30;102215.03;;;6.77;100.00
57568;BME280;43403;51.948;5.922;2023-02-20T05:52:57;102195.84;;;6.78;100.00
57568;BME280;43403;51.948;5.922;2023-02-20T05:55:23;102199.38;;;6.77;100.00
57568;BME280;43403;51.948;5.922;2023-02-20T05:57:49;102193.13;;;6.80;100.00
57568;BME280;43403;51.948;5.922;2023-02-20T06:00:16;102192.97;;;6.83;100.00
57568;BME280;43403;51.948;5.922;2023-02-20T06:02:42;102195.59;;;6.83;100.00
57568;BME280;43403;51.948;5.922;2023-02-20T06:05:08;102198.13;;;6.84;100.00
57568;BME280;43403;51.948;5.922;2023-02-20T06:07:35;102190.94;;;6.88;100.00
57568;BME280;43403;51.948;5.922;2023-02-20T06:10:02;102192.69;;;6.87;100.00
57568;BME280;43403;51.948;5.922;2023-02-20T06:12:29;102204.84;;;6.88;100.00
57568;BME280;43403;51.948;5.922;2023-02-20T06:14:55;102191.44;;;6.95;100.00
57568;BME280;43403;51.948;5.922;2023-02-20T06:17:21;102199.34;;;6.93;100.00
57568;BME280;43403;51.948;5.922;2023-02-20T06:19:48;102195.69;;;6.96;100.00
57568;BME280;43403;51.948;5.922;2023-02-20T06:22:15;102200.09;;;6.95;100.00
57568;BME280;43403;51.948;5.922;2023-02-20T06:24:45;102199.91;;;6.98;100.00
57568;BME280;43403;51.948;5.922;2023-02-20T06:27:12;102203.44;;;6.97;100.00
57568;BME280;43403;51.948;5.922;2023-02-20T06:29:39;102195.38;;;7.02;100.00
57568;BME280;43403;51.948;5.922;2023-02-20T06:32:05;102191.91;;;7.01;100.00
57568;BME280;43403;51.948;5.922;2023-02-20T06:34:32;102209.41;;;6.99;100.00
57568;BME280;43403;51.948;5.922;2023-02-20T06:36:59;102195.47;;;7.00;100.00
57568;BME280;43403;51.948;5.922;2023-02-20T06:39:28;102205.88;;;7.00;100.00
57568;BME280;43403;51.948;5.922;2023-02-20T06:41:55;102207.19;;;7.07;100.00
57568;BME280;43403;51.948;5.922;2023-02-20T06:44:21;102204.50;;;7.09;100.00
57568;BME280;43403;51.948;5.922;2023-02-20T06:46:48;102210.75;;;7.06;100.00
57568;BME280;43403;51.948;5.922;2023-02-20T06:49:14;102196.66;;;7.09;100.00
57568;BME280;43403;51.948;5.922;2023-02-20T06:51:41;102202.84;;;7.08;100.00
57568;BME280;43403;51.948;5.922;2023-02-20T06:54:09;102198.53;;;7.07;100.00
57568;BME280;43403;51.948;5.922;2023-02-20T06:56:36;102193.41;;;7.05;100.00
57568;BME280;43403;51.948;5.922;2023-02-20T06:59:03;102199.03;;;7.13;100.00
57568;BME280;43403;51.948;5.922;2023-02-20T07:01:35;102206.09;;;7.11;100.00
57568;BME280;43403;51.948;5.922;2023-02-20T07:04:04;102186.63;;;7.17;100.00
57568;BME280;43403;51.948;5.922;2023-02-20T07:06:31;102180.28;;;7.21;100.00
57568;BME280;43403;51.948;5.922;2023-02-20T07:08:57;102191.09;;;7.15;100.00
57568;BME280;43403;51.948;5.922;2023-02-20T07:11:23;102194.44;;;7.17;100.00
57568;BME280;43403;51.948;5.922;2023-02-20T07:13:50;102203.88;;;7.20;100.00
57568;BME280;43403;51.948;5.922;2023-02-20T07:16:16;102196.44;;;7.28;100.00
57568;BME280;43403;51.948;5.922;2023-02-20T07:18:43;102210.50;;;7.25;100.00
57568;BME280;43403;51.948;5.922;2023-02-20T07:21:09;102206.28;;;7.23;100.00
57568;BME280;43403;51.948;5.922;2023-02-20T07:23:35;102205.09;;;7.28;100.00
57568;BME280;43403;51.948;5.922;2023-02-20T07:26:02;102199.78;;;7.30;100.00
57568;BME280;43403;51.948;5.922;2023-02-20T07:28:28;102206.59;;;7.32;100.00
57568;BME280;43403;51.948;5.922;2023-02-20T07:30:54;102207.41;;;7.33;100.00
57568;BME280;43403;51.948;5.922;2023-02-20T07:33:21;102209.28;;;7.31;100.00
57568;BME280;43403;51.948;5.922;2023-02-20T07:35:47;102203.97;;;7.32;100.00
57568;BME280;43403;51.948;5.922;2023-02-20T07:38:13;102200.63;;;7.30;100.00
57568;BME280;43403;51.948;5.922;2023-02-20T07:40:40;102201.28;;;7.34;100.00
57568;BME280;43403;51.948;5.922;2023-02-20T07:43:06;102206.34;;;7.37;100.00
57568;BME280;43403;51.948;5.922;2023-02-20T07:45:33;102194.13;;;7.38;100.00
57568;BME280;43403;51.948;5.922;2023-02-20T07:47:59;102194.66;;;7.43;100.00
57568;BME280;43403;51.948;5.922;2023-02-20T07:50:26;102198.31;;;7.40;100.00
57568;BME280;43403;51.948;5.922;2023-02-20T07:52:52;102211.44;;;7.39;100.00
57568;BME280;43403;51.948;5.922;2023-02-20T07:55:18;102204.34;;;7.41;100.00
57568;BME280;43403;51.948;5.922;2023-02-20T07:57:45;102205.22;;;7.41;100.00
57568;BME280;43403;51.948;5.922;2023-02-20T08:00:13;102216.22;;;7.46;100.00
57568;BME280;43403;51.948;5.922;2023-02-20T08:02:39;102207.53;;;7.46;100.00
57568;BME280;43403;51.948;5.922;2023-02-20T08:05:06;102203.28;;;7.45;100.00
57568;BME280;43403;51.948;5.922;2023-02-20T08:07:32;102204.75;;;7.49;100.00
57568;BME280;43403;51.948;5.922;2023-02-20T08:09:58;102206.72;;;7.45;100.00
57568;BME280;43403;51.948;5.922;2023-02-20T08:12:25;102202.25;;;7.47;100.00
57568;BME280;43403;51.948;5.922;2023-02-20T08:14:51;102222.28;;;7.47;100.00
57568;BME280;43403;51.948;5.922;2023-02-20T08:17:18;102212.31;;;7.53;100.00
57568;BME280;43403;51.948;5.922;2023-02-20T08:19:44;102212.75;;;7.60;100.00
57568;BME280;43403;51.948;5.922;2023-02-20T08:22:10;102226.28;;;7.52;100.00
57568;BME280;43403;51.948;5.922;2023-02-20T08:24:37;102222.66;;;7.55;100.00
57568;BME280;43403;51.948;5.922;2023-02-20T08:27:04;102216.50;;;7.56;100.00
57568;BME280;43403;51.948;5.922;2023-02-20T08:29:31;102221.63;;;7.58;100.00
57568;BME280;43403;51.948;5.922;2023-02-20T08:31:57;102221.81;;;7.55;100.00
57568;BME280;43403;51.948;5.922;2023-02-20T08:34:24;102207.84;;;7.56;100.00
57568;BME280;43403;51.948;5.922;2023-02-20T08:36:50;102206.91;;;7.57;100.00
57568;BME280;43403;51.948;5.922;2023-02-20T08:39:16;102197.84;;;7.62;100.00
57568;BME280;43403;51.948;5.922;2023-02-20T08:41:43;102211.09;;;7.59;100.00
57568;BME280;43403;51.948;5.922;2023-02-20T08:44:10;102204.84;;;7.62;100.00
57568;BME280;43403;51.948;5.922;2023-02-20T08:46:37;102212.59;;;7.63;100.00
57568;BME280;43403;51.948;5.922;2023-02-20T08:49:03;102218.38;;;7.68;100.00
57568;BME280;43403;51.948;5.922;2023-02-20T08:51:30;102212.50;;;7.65;100.00
57568;BME280;43403;51.948;5.922;2023-02-20T08:53:56;102221.25;;;7.64;100.00
57568;BME280;43403;51.948;5.922;2023-02-20T08:56:22;102203.53;;;7.69;100.00
57568;BME280;43403;51.948;5.922;2023-02-20T08:58:48;102204.84;;;7.76;100.00
57568;BME280;43403;51.948;5.922;2023-02-20T09:01:15;102203.09;;;7.77;100.00
57568;BME280;43403;51.948;5.922;2023-02-20T09:03:41;102204.59;;;7.66;100.00
57568;BME280;43403;51.948;5.922;2023-02-20T09:06:08;102201.59;;;7.72;100.00
57568;BME280;43403;51.948;5.922;2023-02-20T09:08:35;102202.50;;;7.71;100.00
57568;BME280;43403;51.948;5.922;2023-02-20T09:11:02;102202.34;;;7.75;100.00
57568;BME280;43403;51.948;5.922;2023-02-20T09:13:28;102201.31;;;7.77;100.00
57568;BME280;43403;51.948;5.922;2023-02-20T09:15:55;102205.31;;;7.83;100.00
57568;BME280;43403;51.948;5.922;2023-02-20T09:18:21;102209.88;;;7.79;100.00
57568;BME280;43403;51.948;5.922;2023-02-20T09:20:48;102206.88;;;7.85;100.00
57568;BME280;43403;51.948;5.922;2023-02-20T09:23:14;102190.19;;;7.88;100.00
57568;BME280;43403;51.948;5.922;2023-02-20T09:25:40;102196.16;;;7.90;100.00
57568;BME280;43403;51.948;5.922;2023-02-20T09:28:07;102187.94;;;7.96;100.00
57568;BME280;43403;51.948;5.922;2023-02-20T09:30:34;102182.06;;;7.92;100.00
57568;BME280;43403;51.948;5.922;2023-02-20T09:33:00;102193.44;;;8.06;100.00
57568;BME280;43403;51.948;5.922;2023-02-20T09:35:27;102171.66;;;8.05;100.00
57568;BME280;43403;51.948;5.922;2023-02-20T09:37:54;102176.63;;;7.96;100.00
57568;BME280;43403;51.948;5.922;2023-02-20T09:40:21;102182.13;;;8.05;100.00
57568;BME280;43403;51.948;5.922;2023-02-20T09:45:27;102164.88;;;8.03;100.00
57568;BME280;43403;51.948;5.922;2023-02-20T09:53:21;102179.19;;;8.24;100.00
57568;BME280;43403;51.948;5.922;2023-02-20T09:55:49;102168.00;;;8.22;100.00
57568;BME280;43403;51.948;5.922;2023-02-20T09:58:25;102192.56;;;8.20;100.00
57568;BME280;43403;51.948;5.922;2023-02-20T10:00:54;102175.09;;;8.20;100.00
57568;BME280;43403;51.948;5.922;2023-02-20T10:05:49;102159.91;;;8.12;100.00
57568;BME280;43403;51.948;5.922;2023-02-20T10:08:18;102169.22;;;8.17;100.00
57568;BME280;43403;51.948;5.922;2023-02-20T10:10:47;102170.91;;;8.18;100.00
57568;BME280;43403;51.948;5.922;2023-02-20T10:13:28;102175.09;;;8.20;100.00
57568;BME280;43403;51.948;5.922;2023-02-20T10:16:01;102183.41;;;8.12;100.00
57568;BME280;43403;51.948;5.922;2023-02-20T10:18:34;102180.16;;;8.09;100.00
57568;BME280;43403;51.948;5.922;2023-02-20T10:23:51;102179.41;;;8.21;100.00
57568;BME280;43403;51.948;5.922;2023-02-20T10:26:34;102185.00;;;8.15;100.00
57568;BME280;43403;51.948;5.922;2023-02-20T10:31:59;102195.44;;;8.15;100.00
57568;BME280;43403;51.948;5.922;2023-02-20T10:34:44;102190.69;;;8.22;100.00
57568;BME280;43403;51.948;5.922;2023-02-20T10:37:19;102195.28;;;8.18;100.00
57568;BME280;43403;51.948;5.922;2023-02-20T10:39:52;102196.41;;;8.14;100.00
57568;BME280;43403;51.948;5.922;2023-02-20T10:42:27;102199.94;;;8.13;100.00
57568;BME280;43403;51.948;5.922;2023-02-20T10:44:57;102205.41;;;8.23;100.00
57568;BME280;43403;51.948;5.922;2023-02-20T10:47:35;102206.16;;;8.25;100.00
57568;BME280;43403;51.948;5.922;2023-02-20T10:52:42;102221.41;;;8.18;100.00
57568;BME280;43403;51.948;5.922;2023-02-20T10:55:17;102211.38;;;8.25;100.00
57568;BME280;43403;51.948;5.922;2023-02-20T10:57:47;102200.31;;;8.21;100.00
57568;BME280;43403;51.948;5.922;2023-02-20T11:00:23;102209.06;;;8.20;100.00
57568;BME280;43403;51.948;5.922;2023-02-20T11:02:52;102208.59;;;8.28;100.00
57568;BME280;43403;51.948;5.922;2023-02-20T11:05:22;102191.97;;;8.29;100.00
57568;BME280;43403;51.948;5.922;2023-02-20T11:07:50;102180.88;;;8.25;100.00
57568;BME280;43403;51.948;5.922;2023-02-20T11:10:16;102196.25;;;8.30;100.00
57568;BME280;43403;51.948;5.922;2023-02-20T11:15:10;102200.00;;;8.26;100.00
57568;BME280;43403;51.948;5.922;2023-02-20T11:17:38;102180.97;;;8.24;100.00
57568;BME280;43403;51.948;5.922;2023-02-20T11:20:05;102167.69;;;8.27;100.00
57568;BME280;43403;51.948;5.922;2023-02-20T11:22:51;102173.47;;;8.32;100.00
57568;BME280;43403;51.948;5.922;2023-02-20T11:25:18;102188.84;;;8.37;100.00
57568;BME280;43403;51.948;5.922;2023-02-20T11:27:45;102158.34;;;8.37;100.00
57568;BME280;43403;51.948;5.922;2023-02-20T11:32:45;102157.47;;;8.37;100.00
57568;BME280;43403;51.948;5.922;2023-02-20T11:35:14;102155.50;;;8.40;100.00
57568;BME280;43403;51.948;5.922;2023-02-20T11:37:46;102147.66;;;8.40;100.00
57568;BME280;43403;51.948;5.922;2023-02-20T11:40:27;102132.06;;;8.39;100.00
57568;BME280;43403;51.948;5.922;2023-02-20T11:42:55;102145.81;;;8.42;100.00
57568;BME280;43403;51.948;5.922;2023-02-20T11:45:34;102132.94;;;8.39;100.00
57568;BME280;43403;51.948;5.922;2023-02-20T11:50:43;102128.59;;;8.52;100.00
57568;BME280;43403;51.948;5.922;2023-02-20T11:53:26;102095.72;;;8.48;100.00
57568;BME280;43403;51.948;5.922;2023-02-20T11:56:11;102100.53;;;8.42;100.00
57568;BME280;43403;51.948;5.922;2023-02-20T11:58:38;102134.22;;;8.46;100.00
57568;BME280;43403;51.948;5.922;2023-02-20T12:01:05;102144.28;;;8.52;100.00
57568;BME280;43403;51.948;5.922;2023-02-20T12:03:33;102130.19;;;8.55;100.00
57568;BME280;43403;51.948;5.922;2023-02-20T12:11:15;102126.72;;;8.55;100.00
57568;BME280;43403;51.948;5.922;2023-02-20T12:13:43;102112.28;;;8.49;100.00
57568;BME280;43403;51.948;5.922;2023-02-20T12:19:08;102120.00;;;8.50;100.00
57568;BME280;43403;51.948;5.922;2023-02-20T12:21:48;102140.72;;;8.54;100.00
57568;BME280;43403;51.948;5.922;2023-02-20T12:26:52;102119.94;;;8.65;100.00
57568;BME280;43403;51.948;5.922;2023-02-20T12:34:29;102144.63;;;8.74;100.00
57568;BME280;43403;51.948;5.922;2023-02-20T12:37:03;102141.28;;;8.71;100.00
57568;BME280;43403;51.948;5.922;2023-02-20T12:39:35;102140.66;;;8.68;100.00
57568;BME280;43403;51.948;5.922;2023-02-20T12:55:11;102129.06;;;8.85;100.00
57568;BME280;43403;51.948;5.922;2023-02-20T12:57:49;102129.72;;;8.88;100.00
57568;BME280;43403;51.948;5.922;2023-02-20T13:02:54;102111.16;;;8.91;100.00
57568;BME280;43403;51.948;5.922;2023-02-20T13:05:21;102106.88;;;8.90;100.00
57568;BME280;43403;51.948;5.922;2023-02-20T13:10:22;102102.16;;;8.96;100.00
57568;BME280;43403;51.948;5.922;2023-02-20T13:12:50;102107.31;;;8.97;100.00
57568;BME280;43403;51.948;5.922;2023-02-20T13:18:09;102101.34;;;9.08;100.00
57568;BME280;43403;51.948;5.922;2023-02-20T13:20:46;102096.94;;;9.08;100.00
57568;BME280;43403;51.948;5.922;2023-02-20T13:25:47;102085.75;;;9.06;100.00
57568;BME280;43403;51.948;5.922;2023-02-20T13:33:31;102081.25;;;9.08;100.00
57568;BME280;43403;51.948;5.922;2023-02-20T13:35:58;102074.66;;;9.16;100.00
57568;BME280;43403;51.948;5.922;2023-02-20T13:38:25;102071.91;;;9.17;100.00
57568;BME280;43403;51.948;5.922;2023-02-20T13:45:49;102061.13;;;9.22;100.00
57568;BME280;43403;51.948;5.922;2023-02-20T13:48:38;102065.63;;;9.20;100.00
57568;BME280;43403;51.948;5.922;2023-02-20T13:58:43;102042.75;;;9.35;100.00
57568;BME280;43403;51.948;5.922;2023-02-20T14:01:09;102047.06;;;9.36;100.00
57568;BME280;43403;51.948;5.922;2023-02-20T14:03:36;102044.34;;;9.37;100.00
57568;BME280;43403;51.948;5.922;2023-02-20T14:06:09;102050.63;;;9.35;100.00
57568;BME280;43403;51.948;5.922;2023-02-20T14:08:38;102057.09;;;9.29;100.00
57568;BME280;43403;51.948;5.922;2023-02-20T14:11:30;102050.41;;;9.25;100.00
57568;BME280;43403;51.948;5.922;2023-02-20T14:13:53;102048.44;;;9.28;100.00
57568;BME280;43403;51.948;5.922;2023-02-20T14:18:55;102037.75;;;9.32;100.00
57568;BME280;43403;51.948;5.922;2023-02-20T14:21:21;102048.00;;;9.35;100.00
57568;BME280;43403;51.948;5.922;2023-02-20T14:23:48;102039.03;;;9.26;100.00
57568;BME280;43403;51.948;5.922;2023-02-20T14:28:46;102035.88;;;9.21;100.00
57568;BME280;43403;51.948;5.922;2023-02-20T14:31:20;102015.34;;;9.27;100.00
57568;BME280;43403;51.948;5.922;2023-02-20T14:33:48;102014.50;;;9.27;100.00
57568;BME280;43403;51.948;5.922;2023-02-20T14:39:02;102030.44;;;9.24;100.00
57568;BME280;43403;51.948;5.922;2023-02-20T14:41:32;102008.13;;;9.18;100.00
57568;BME280;43403;51.948;5.922;2023-02-20T14:43:59;102012.53;;;9.18;100.00
57568;BME280;43403;51.948;5.922;2023-02-20T14:46:30;101997.03;;;9.15;100.00
57568;BME280;43403;51.948;5.922;2023-02-20T14:49:14;101991.59;;;9.18;100.00
57568;BME280;43403;51.948;5.922;2023-02-20T14:51:45;101980.16;;;9.19;100.00
57568;BME280;43403;51.948;5.922;2023-02-20T14:56:47;102005.19;;;9.23;100.00
57568;BME280;43403;51.948;5.922;2023-02-20T14:59:24;102017.97;;;9.27;100.00
57568;BME280;43403;51.948;5.922;2023-02-20T15:01:57;102017.97;;;9.27;100.00
57568;BME280;43403;51.948;5.922;2023-02-20T15:04:27;102032.53;;;9.19;100.00